Time;durP1;ratioP1;P1;durP2;ratioP2;P2;SDS_P1;SDS_P2;PMS_P1;PMS_P2;Temp;Humidity;BMP_temperature;BMP_pressure;BME280_temperature;BME280_humidity;BME280_pressure;Samples;Min_cycle;Max_cycle;Signal;HPM_P1;HPM_P2
2022/11/25 00:01:36;;;;;;;20.83;4.53;;;8.60;99.90;;;;;;5092818;28;20094;-75
2022/11/25 00:04:02;;;;;;;34.85;5.72;;;7.40;99.90;;;;;;5092827;28;20070;-76
2022/11/25 00:06:34;;;;;;;22.13;5.03;;;7.00;99.90;;;;;;5091705;28;20127;-74
2022/11/25 00:09:06;;;;;;;25.40;5.05;;;7.20;99.90;;;;;;5091658;28;20396;-75
2022/11/25 00:11:37;;;;;;;21.52;5.15;;;7.20;99.90;;;;;;5091404;28;20454;-74
2022/11/25 00:14:04;;;;;;;23.77;5.18;;;7.30;99.90;;;;;;5091071;28;20086;-75
2022/11/25 00:16:30;;;;;;;27.13;5.25;;;7.30;99.90;;;;;;5092646;28;20059;-77
2022/11/25 00:18:57;;;;;;;26.08;5.10;;;7.00;99.90;;;;;;5092594;28;20392;-76
2022/11/25 00:21:26;;;;;;;20.63;4.30;;;7.40;99.90;;;;;;5091469;28;20052;-77
2022/11/25 00:23:57;;;;;;;21.77;4.22;;;7.50;99.90;;;;;;5091536;28;20472;-76
2022/11/25 00:26:24;;;;;;;27.65;5.18;;;7.50;99.90;;;;;;5091452;28;20063;-74
2022/11/25 00:28:51;;;;;;;28.33;5.20;;;8.50;99.90;;;;;;5090736;28;20545;-78
2022/11/25 00:31:23;;;;;;;19.75;4.25;;;7.30;99.90;;;;;;5074207;28;20571;-76
2022/11/25 00:33:49;;;;;;;26.17;4.85;;;7.10;99.90;;;;;;5091250;28;20052;-74
2022/11/25 00:36:23;;;;;;;19.08;4.30;;;7.90;99.90;;;;;;5092273;28;20056;-74
2022/11/25 00:38:54;;;;;;;18.50;4.45;;;7.40;99.90;;;;;;5091141;28;20054;-75
2022/11/25 00:46:49;;;;;;;24.20;5.55;;;7.10;99.90;;;;;;5090978;28;20051;-77
2022/11/25 00:49:15;;;;;;;26.83;4.57;;;7.50;99.90;;;;;;5074141;28;20052;-77
2022/11/25 00:51:40;;;;;;;24.17;4.10;;;7.50;99.90;;;;;;5090694;28;20472;-77
2022/11/25 00:54:06;;;;;;;26.33;4.68;;;7.20;99.90;;;;;;5090477;28;20058;-75
2022/11/25 00:56:31;;;;;;;25.45;4.35;;;7.40;99.90;;;;;;5091690;28;20048;-76
2022/11/25 00:58:57;;;;;;;25.83;4.78;;;8.10;99.90;;;;;;5091958;28;20052;-76
2022/11/25 01:01:23;;;;;;;25.33;5.10;;;7.80;99.90;;;;;;5091979;28;20385;-76
2022/11/25 01:03:51;;;;;;;20.05;5.45;;;7.60;99.90;;;;;;5091647;28;20040;-74
2022/11/25 01:06:17;;;;;;;18.75;4.78;;;7.50;99.90;;;;;;5091989;28;20046;-75
2022/11/25 01:08:43;;;;;;;21.02;5.47;;;7.60;99.90;;;;;;5090942;28;20059;-75
2022/11/25 01:11:15;;;;;;;26.08;4.47;;;8.30;99.90;;;;;;5091533;28;20040;-74
2022/11/25 01:13:41;;;;;;;22.38;4.50;;;7.40;99.90;;;;;;5091857;28;20109;-76
2022/11/25 01:16:09;;;;;;;26.80;5.13;;;7.60;99.90;;;;;;5090836;28;20080;-76
2022/11/25 01:18:35;;;;;;;20.80;4.40;;;7.30;99.90;;;;;;5091910;28;20045;-76
2022/11/25 01:21:08;;;;;;;25.02;4.15;;;7.90;99.90;;;;;;5092021;28;20048;-76
2022/11/25 01:23:35;;;;;;;25.13;4.82;;;8.60;99.90;;;;;;5091902;28;20040;-75
2022/11/25 01:26:05;;;;;;;28.85;5.32;;;7.70;99.90;;;;;;5091556;28;20059;-76
2022/11/25 01:28:32;;;;;;;20.92;4.88;;;7.20;99.90;;;;;;5091778;28;20131;-75
2022/11/25 01:30:59;;;;;;;27.00;4.80;;;7.30;99.90;;;;;;5091654;28;20044;-77
2022/11/25 01:33:25;;;;;;;35.35;5.18;;;7.60;99.90;;;;;;5090443;28;20123;-76
2022/11/25 01:35:50;;;;;;;17.15;4.40;;;7.50;99.90;;;;;;5093639;28;20143;-76
2022/11/25 01:38:16;;;;;;;20.23;4.72;;;7.30;99.90;;;;;;5094594;28;20044;-74
2022/11/25 01:40:42;;;;;;;25.65;5.50;;;7.70;99.90;;;;;;5094289;28;20059;-78
2022/11/25 01:43:13;;;;;;;20.42;4.18;;;7.40;99.90;;;;;;5095545;28;20048;-77
2022/11/25 01:45:39;;;;;;;22.90;4.40;;;7.50;99.90;;;;;;5094479;28;20056;-77
2022/11/25 01:48:24;;;;;;;24.80;4.72;;;7.50;99.90;;;;;;5094321;28;20541;-78
2022/11/25 01:50:49;;;;;;;20.48;4.32;;;7.30;99.90;;;;;;5095332;28;20044;-75
2022/11/25 01:53:19;;;;;;;18.67;4.45;;;7.40;99.90;;;;;;5095418;28;20070;-78
2022/11/25 01:55:54;;;;;;;25.67;5.25;;;7.50;99.90;;;;;;5093978;28;20055;-77
2022/11/25 01:58:27;;;;;;;26.45;4.78;;;8.20;99.90;;;;;;5095390;28;20058;-77
2022/11/25 02:00:53;;;;;;;19.17;4.63;;;8.50;99.90;;;;;;5095255;28;20084;-76
2022/11/25 02:03:33;;;;;;;23.73;4.75;;;7.50;99.90;;;;;;5093917;28;20138;-77
2022/11/25 02:06:11;;;;;;;26.52;4.93;;;7.30;99.90;;;;;;5094965;28;20500;-76
2022/11/25 02:08:38;;;;;;;21.80;4.22;;;7.50;99.90;;;;;;5094860;28;20043;-78
2022/11/25 02:11:04;;;;;;;22.52;5.15;;;7.50;99.90;;;;;;5094897;28;20492;-79
2022/11/25 02:13:32;;;;;;;19.77;5.18;;;7.80;99.90;;;;;;5095022;28;20055;-74
2022/11/25 02:15:57;;;;;;;21.95;5.07;;;7.70;99.90;;;;;;5093648;28;20051;-78
2022/11/25 02:18:25;;;;;;;24.75;4.50;;;8.00;99.90;;;;;;5094955;28;20052;-77
2022/11/25 02:20:51;;;;;;;35.55;5.40;;;7.80;99.90;;;;;;5094785;28;20094;-77
2022/11/25 02:23:31;;;;;;;22.27;5.00;;;7.50;99.90;;;;;;5094564;28;20054;-77
2022/11/25 02:25:57;;;;;;;26.83;4.80;;;7.40;99.90;;;;;;5093714;28;20052;-77
2022/11/25 02:28:29;;;;;;;22.33;4.70;;;7.70;99.90;;;;;;5094360;28;20511;-77
2022/11/25 02:30:55;;;;;;;26.23;5.15;;;7.60;99.90;;;;;;5094656;28;20047;-77
2022/11/25 02:33:21;;;;;;;;;;;7.70;99.90;;;;;;5094034;28;20074;-76
2022/11/25 02:35:54;;;;;;;25.08;5.15;;;7.50;99.90;;;;;;5094483;28;19924;-78
2022/11/25 02:38:29;;;;;;;36.00;5.35;;;7.40;99.90;;;;;;5094237;28;20048;-78
2022/11/25 02:41:21;;;;;;;21.42;4.68;;;7.70;99.90;;;;;;5093419;28;20070;-76
2022/11/25 02:43:47;;;;;;;32.92;5.45;;;7.70;99.90;;;;;;5094396;28;20048;-79
2022/11/25 02:46:16;;;;;;;20.55;5.13;;;7.30;99.90;;;;;;5093882;28;20182;-78
2022/11/25 02:48:42;;;;;;;28.33;5.72;;;7.60;99.90;;;;;;5093743;28;20044;-78
2022/11/25 02:51:10;;;;;;;27.17;5.32;;;7.70;99.90;;;;;;5092953;28;20048;-77
2022/11/25 02:53:36;;;;;;;31.70;5.95;;;7.40;99.90;;;;;;5093922;28;20046;-78
2022/11/25 02:56:02;;;;;;;23.67;5.35;;;7.50;99.90;;;;;;5093119;28;20040;-78
2022/11/25 02:58:27;;;;;;;25.25;5.45;;;8.70;99.90;;;;;;5094176;28;20044;-77
2022/11/25 03:00:53;;;;;;;24.48;5.57;;;7.50;99.90;;;;;;5092722;28;20063;-77
2022/11/25 03:03:19;;;;;;;26.60;5.38;;;7.40;99.90;;;;;;5092811;28;20094;-76
2022/11/25 03:05:45;;;;;;;37.00;5.70;;;7.30;99.90;;;;;;5094032;28;20062;-76
2022/11/25 03:08:10;;;;;;;23.25;5.78;;;7.50;99.90;;;;;;5093800;28;20044;-76
2022/11/25 03:10:37;;;;;;;25.08;5.55;;;7.50;99.90;;;;;;5093854;28;20036;-76
2022/11/25 03:13:04;;;;;;;29.02;5.90;;;8.90;99.90;;;;;;5093998;28;20054;-76
2022/11/25 03:15:30;;;;;;;28.63;5.38;;;7.80;99.90;;;;;;5092923;28;20051;-77
2022/11/25 03:17:56;;;;;;;23.58;5.57;;;8.30;99.90;;;;;;5092841;28;20083;-77
2022/11/25 03:20:23;;;;;;;33.28;6.45;;;7.70;99.90;;;;;;5075890;28;20079;-78
2022/11/25 03:22:48;;;;;;;;;;;8.60;99.90;;;;;;5093848;28;20094;-78
2022/11/25 03:25:15;;;;;;;28.30;6.13;;;7.30;99.90;;;;;;5092559;28;19924;-77
2022/11/25 03:27:41;;;;;;;27.70;6.40;;;7.60;99.90;;;;;;5092590;28;20051;-77
2022/11/25 03:30:10;;;;;;;33.53;6.13;;;7.50;99.90;;;;;;5093425;28;20437;-77
2022/11/25 03:32:35;;;;;;;22.70;6.18;;;7.40;99.90;;;;;;5093444;28;20062;-78
2022/11/25 03:35:01;;;;;;;34.75;6.38;;;7.50;99.90;;;;;;5091824;28;20062;-78
2022/11/25 03:37:27;;;;;;;36.22;6.63;;;8.70;99.90;;;;;;5091808;28;20098;-76
2022/11/25 03:39:53;;;;;;;33.25;6.55;;;8.10;99.90;;;;;;5093556;28;20079;-79
2022/11/25 03:42:18;;;;;;;25.15;6.68;;;7.70;99.90;;;;;;5092981;28;20040;-79
2022/11/25 03:44:44;;;;;;;33.38;7.85;;;8.40;99.90;;;;;;5092208;28;20052;-79
2022/11/25 03:47:10;;;;;;;28.75;7.93;;;9.30;99.90;;;;;;5091613;28;20273;-78
2022/11/25 03:49:35;;;;;;;29.92;7.30;;;9.40;99.90;;;;;;5093174;28;20085;-79
2022/11/25 03:52:01;;;;;;;27.30;7.13;;;8.20;99.90;;;;;;5091485;28;20488;-83
2022/11/25 03:54:29;;;;;;;32.92;7.82;;;8.00;99.90;;;;;;5093093;28;20059;-81
2022/11/25 03:56:55;;;;;;;33.17;7.72;;;8.20;99.90;;;;;;5091583;28;20055;-82
2022/11/25 03:59:21;;;;;;;27.73;7.47;;;7.80;99.90;;;;;;5092755;28;20047;-80
2022/11/25 04:01:46;;;;;;;26.00;8.63;;;8.00;99.90;;;;;;5092940;28;20040;-80
2022/11/25 04:04:12;;;;;;;35.22;8.23;;;7.90;99.90;;;;;;5074731;28;20062;-80
2022/11/25 04:06:38;;;;;;;32.92;8.40;;;8.00;99.90;;;;;;5092636;28;20083;-81
2022/11/25 04:09:05;;;;;;;24.08;7.70;;;8.00;99.90;;;;;;5058326;28;20040;-80
2022/11/25 04:14:15;;;;;;;28.98;8.00;;;9.00;99.90;;;;;;5091818;28;20094;-79
2022/11/25 04:16:41;;;;;;;29.65;7.28;;;8.10;99.90;;;;;;5092597;28;20423;-80
2022/11/25 04:19:06;;;;;;;22.38;7.45;;;7.70;99.90;;;;;;5092477;28;20040;-78
2022/11/25 04:21:32;;;;;;;27.13;7.18;;;8.20;99.90;;;;;;5091323;28;20051;-78
2022/11/25 04:23:58;;;;;;;23.73;7.43;;;8.20;99.90;;;;;;5092637;28;20054;-78
2022/11/25 04:26:23;;;;;;;35.70;7.65;;;8.60;99.90;;;;;;5091561;28;20052;-78
2022/11/25 04:28:49;;;;;;;27.58;8.52;;;7.80;99.90;;;;;;5092091;28;20093;-80
2022/11/25 04:31:15;;;;;;;24.98;8.30;;;8.30;99.90;;;;;;5091195;28;20051;-81
2022/11/25 04:33:40;;;;;;;30.83;8.90;;;8.20;99.90;;;;;;5092136;28;20067;-79
2022/11/25 04:36:07;;;;;;;24.20;8.43;;;7.90;99.90;;;;;;5090904;28;20142;-82
2022/11/25 04:38:32;;;;;;;29.80;8.35;;;7.90;99.90;;;;;;5091149;28;20048;-81
2022/11/25 04:40:58;;;;;;;26.45;8.65;;;8.70;99.90;;;;;;5092418;28;20044;-81
2022/11/25 04:43:24;;;;;;;28.02;9.02;;;8.00;99.90;;;;;;5092308;28;20059;-81
2022/11/25 04:45:50;;;;;;;21.77;8.45;;;8.00;99.90;;;;;;5091263;28;20079;-79
2022/11/25 04:48:16;;;;;;;28.58;9.15;;;8.40;99.90;;;;;;5091208;28;20087;-81
2022/11/25 04:50:42;;;;;;;29.60;9.43;;;8.40;99.90;;;;;;5090928;28;20076;-81
2022/11/25 04:53:08;;;;;;;32.75;9.30;;;8.00;99.90;;;;;;5090977;28;20055;-82
2022/11/25 04:55:33;;;;;;;38.45;10.45;;;7.90;99.90;;;;;;5090947;28;20181;-83
2022/11/25 04:57:59;;;;;;;26.58;10.00;;;8.10;99.90;;;;;;5090958;28;20041;-81
2022/11/25 05:00:25;;;;;;;29.00;10.23;;;8.30;99.90;;;;;;5092126;28;20047;-84
2022/11/25 05:02:51;;;;;;;28.95;9.30;;;7.80;99.90;;;;;;5091873;28;20051;-81
2022/11/25 05:05:16;;;;;;;31.67;10.80;;;9.20;99.90;;;;;;5091181;28;20052;-82
2022/11/25 05:07:42;;;;;;;29.85;10.52;;;7.60;99.90;;;;;;5091174;28;20052;-82
2022/11/25 05:10:08;;;;;;;38.22;9.90;;;7.80;99.90;;;;;;5091867;28;20052;-82
2022/11/25 05:12:34;;;;;;;38.72;10.00;;;8.00;99.90;;;;;;5095245;28;20495;-81
2022/11/25 05:15:00;;;;;;;32.35;10.32;;;8.00;99.90;;;;;;5095154;28;20040;-81
2022/11/25 05:17:29;;;;;;;34.38;10.98;;;8.40;99.90;;;;;;5094901;28;20055;-81
2022/11/25 05:19:55;;;;;;;34.70;10.88;;;7.90;99.90;;;;;;5096237;28;20381;-80
2022/11/25 05:22:23;;;;;;;32.85;10.05;;;8.00;99.90;;;;;;5094767;28;20043;-80
2022/11/25 05:24:49;;;;;;;31.58;11.25;;;8.10;99.90;;;;;;5094679;28;20075;-78
2022/11/25 05:27:15;;;;;;;38.67;11.65;;;8.90;99.90;;;;;;5095874;28;20044;-80
2022/11/25 05:29:41;;;;;;;37.92;11.32;;;9.40;99.90;;;;;;5094827;28;20052;-80
2022/11/25 05:32:07;;;;;;;37.90;11.73;;;7.80;99.90;;;;;;5095554;28;20093;-79
2022/11/25 05:34:33;;;;;;;37.38;11.60;;;8.30;99.90;;;;;;5095807;28;20083;-80
2022/11/25 05:36:59;;;;;;;33.88;10.93;;;8.10;99.90;;;;;;5095730;28;20103;-80
2022/11/25 05:39:24;;;;;;;36.03;10.88;;;8.60;99.90;;;;;;5095730;28;20572;-80
2022/11/25 05:41:50;;;;;;;33.53;10.50;;;7.90;99.90;;;;;;5094264;28;20051;-81
2022/11/25 05:44:16;;;;;;;38.47;11.60;;;7.90;99.90;;;;;;5095549;28;20055;-80
2022/11/25 05:46:45;;;;;;;39.75;10.98;;;8.10;99.90;;;;;;5094134;28;20385;-80
2022/11/25 05:49:11;;;;;;;35.60;11.10;;;8.10;99.90;;;;;;5095477;28;20043;-80
2022/11/25 05:51:37;;;;;;;41.08;12.00;;;8.20;99.90;;;;;;5094146;28;20449;-80
2022/11/25 05:54:03;;;;;;;40.42;11.23;;;8.80;99.90;;;;;;5094152;28;20090;-80
2022/11/25 05:56:28;;;;;;;38.25;10.93;;;8.00;99.90;;;;;;5095383;28;20060;-80
2022/11/25 05:58:54;;;;;;;29.80;10.82;;;8.20;99.90;;;;;;5095581;28;20044;-79
2022/11/25 06:01:22;;;;;;;34.55;11.13;;;8.00;99.90;;;;;;5093741;28;20040;-80
2022/11/25 06:03:47;;;;;;;36.45;10.40;;;8.00;99.90;;;;;;5095262;28;20083;-79
2022/11/25 06:06:13;;;;;;;35.97;10.55;;;8.00;99.90;;;;;;5077286;28;20094;-80
2022/11/25 06:08:39;;;;;;;35.67;10.85;;;8.90;99.90;;;;;;5093920;28;20056;-80
2022/11/25 06:11:12;;;;;;;28.63;10.55;;;7.90;99.90;;;;;;5093964;28;20400;-80
2022/11/25 06:13:38;;;;;;;39.20;10.65;;;8.80;99.90;;;;;;5093790;28;20044;-80
2022/11/25 06:16:12;;;;;;;35.85;10.20;;;8.20;99.90;;;;;;5076420;28;20040;-78
2022/11/25 06:18:38;;;;;;;31.33;10.68;;;8.20;99.90;;;;;;5095030;28;20524;-80
2022/11/25 06:21:04;;;;;;;;;;;8.30;99.90;;;;;;5093969;28;20427;-80
2022/11/25 06:23:30;;;;;;;36.92;10.93;;;8.00;99.90;;;;;;5093768;28;19924;-80
2022/11/25 06:26:13;;;;;;;31.52;9.38;;;8.30;99.90;;;;;;5093586;28;20055;-79
2022/11/25 06:28:39;;;;;;;29.95;8.93;;;7.70;99.90;;;;;;5094954;28;20047;-80
2022/11/25 06:31:14;;;;;;;29.85;8.50;;;7.90;99.90;;;;;;5094428;28;20047;-80
2022/11/25 06:33:40;;;;;;;30.40;8.43;;;8.10;99.90;;;;;;5094779;28;20408;-80
2022/11/25 06:36:08;;;;;;;43.13;9.25;;;8.10;99.90;;;;;;5094277;28;20064;-80
2022/11/25 06:38:34;;;;;;;36.47;9.07;;;8.20;99.90;;;;;;5094592;28;20047;-80
2022/11/25 06:41:02;;;;;;;26.83;7.70;;;9.10;99.90;;;;;;5076503;28;20062;-79
2022/11/25 06:43:28;;;;;;;35.85;8.35;;;8.10;99.90;;;;;;5076604;28;20142;-80
2022/11/25 06:45:54;;;;;;;29.83;9.20;;;8.20;99.90;;;;;;5076277;28;20130;-80
2022/11/25 06:48:20;;;;;;;31.08;8.57;;;8.40;99.90;;;;;;5093320;28;20453;-80
2022/11/25 06:50:55;;;;;;;33.47;9.18;;;8.00;99.90;;;;;;5094319;28;20047;-79
2022/11/25 06:53:20;;;;;;;32.55;9.05;;;7.90;99.90;;;;;;5093307;28;20127;-80
2022/11/25 06:55:46;;;;;;;32.20;7.90;;;8.30;99.90;;;;;;5076303;28;20131;-78
2022/11/25 06:58:11;;;;;;;24.42;8.93;;;9.10;99.90;;;;;;5093247;28;20094;-79
2022/11/25 07:00:37;;;;;;;27.85;8.48;;;8.10;99.90;;;;;;5092818;28;20040;-79
2022/11/25 07:03:03;;;;;;;27.45;9.02;;;7.90;99.90;;;;;;5093184;28;20048;-79
2022/11/25 07:05:29;;;;;;;29.63;9.43;;;8.70;99.90;;;;;;5076350;28;20052;-79
2022/11/25 07:07:55;;;;;;;36.05;9.27;;;8.30;99.90;;;;;;5094045;28;20484;-79
2022/11/25 07:10:21;;;;;;;23.15;8.82;;;8.00;99.90;;;;;;5093855;28;20040;-78
2022/11/25 07:12:46;;;;;;;36.63;9.75;;;8.00;99.90;;;;;;5094070;28;20051;-77
2022/11/25 07:15:12;;;;;;;31.58;9.70;;;7.80;99.90;;;;;;5092398;28;20058;-79
2022/11/25 07:17:37;;;;;;;30.58;8.82;;;7.90;99.90;;;;;;5093832;28;20055;-79
2022/11/25 07:20:04;;;;;;;28.25;8.57;;;7.70;99.90;;;;;;5092376;28;20044;-79
2022/11/25 07:22:29;;;;;;;28.73;8.75;;;7.70;99.90;;;;;;5093509;28;20094;-79
2022/11/25 07:24:55;;;;;;;25.40;9.18;;;7.60;99.90;;;;;;5093689;28;20047;-79
2022/11/25 07:27:20;;;;;;;32.65;9.88;;;7.80;99.90;;;;;;5093644;28;20102;-79
2022/11/25 07:29:48;;;;;;;31.02;9.68;;;9.00;99.90;;;;;;5092138;28;20083;-79
2022/11/25 07:32:13;;;;;;;36.60;9.82;;;7.60;99.90;;;;;;5092123;28;20421;-79
2022/11/25 07:34:39;;;;;;;31.42;8.70;;;8.00;99.90;;;;;;5075148;28;20093;-79
2022/11/25 07:37:05;;;;;;;28.55;9.05;;;7.70;99.90;;;;;;5091615;28;20125;-79
2022/11/25 07:39:31;;;;;;;34.38;9.13;;;7.80;99.90;;;;;;5093400;28;20040;-79
2022/11/25 07:41:56;;;;;;;38.55;9.07;;;7.70;99.90;;;;;;5093413;28;20099;-79
2022/11/25 07:44:22;;;;;;;28.65;9.05;;;7.50;99.90;;;;;;5074940;28;20044;-79
2022/11/25 07:46:49;;;;;;;23.85;8.48;;;7.60;99.90;;;;;;5091939;28;20098;-79
2022/11/25 07:49:25;;;;;;;28.95;8.15;;;;;;;;;;5092082;28;20449;-79
2022/11/25 07:52:01;;;;;;;28.25;8.48;;;7.60;99.90;;;;;;5093179;28;20135;-79
2022/11/25 07:54:27;;;;;;;28.33;8.85;;;7.70;99.90;;;;;;5092099;28;20055;-79
2022/11/25 07:56:53;;;;;;;24.85;8.90;;;7.50;99.90;;;;;;5091433;28;20056;-79
2022/11/25 07:59:21;;;;;;;27.50;8.77;;;8.00;99.90;;;;;;5092968;28;20087;-79
2022/11/25 08:01:51;;;;;;;26.75;9.07;;;7.50;99.90;;;;;;5091544;28;20040;-79
2022/11/25 08:04:18;;;;;;;32.63;8.88;;;7.00;99.90;;;;;;5092896;28;20048;-79
2022/11/25 08:06:45;;;;;;;27.55;8.25;;;7.40;99.90;;;;;;5091534;28;20091;-79
2022/11/25 08:09:14;;;;;;;22.67;8.57;;;7.10;99.90;;;;;;5092768;28;20040;-78
2022/11/25 08:11:40;;;;;;;28.13;8.75;;;7.00;99.90;;;;;;5092392;28;20055;-79
2022/11/25 08:14:06;;;;;;;26.75;8.90;;;7.60;99.90;;;;;;5074834;28;20052;-79
2022/11/25 08:16:32;;;;;;;;;;;7.50;99.90;;;;;;5092047;28;20527;-79
2022/11/25 08:18:59;;;;;;;24.08;8.68;;;7.60;99.90;;;;;;5091560;28;19971;-79
2022/11/25 08:21:25;;;;;;;30.02;9.27;;;7.40;99.90;;;;;;5091421;28;20118;-79
2022/11/25 08:23:52;;;;;;;27.88;9.32;;;7.80;99.90;;;;;;5092563;28;20545;-78
2022/11/25 08:26:29;;;;;;;33.17;9.52;;;7.70;99.90;;;;;;5092265;28;20044;-78
2022/11/25 08:28:55;;;;;;;28.23;8.95;;;7.60;99.90;;;;;;5091555;28;20056;-78
2022/11/25 08:31:27;;;;;;;24.25;9.05;;;7.80;99.90;;;;;;5091145;28;20047;-79
2022/11/25 08:33:54;;;;;;;24.15;8.23;;;7.90;99.90;;;;;;5091395;28;20135;-78
2022/11/25 08:36:21;;;;;;;22.65;9.05;;;7.50;99.90;;;;;;5091998;28;20063;-79
2022/11/25 08:38:49;;;;;;;20.52;7.85;;;7.90;99.90;;;;;;5091292;28;20067;-78
2022/11/25 08:41:24;;;;;;;27.58;7.90;;;7.70;99.90;;;;;;5090825;28;20048;-78
2022/11/25 08:43:50;;;;;;;29.40;8.70;;;8.20;99.90;;;;;;5091046;28;20463;-78
2022/11/25 08:46:29;;;;;;;28.58;7.88;;;;;;;;;;5090195;28;20143;-75
2022/11/25 08:48:55;;;;;;;25.98;8.70;;;8.00;99.90;;;;;;5091234;28;20052;-79
2022/11/25 08:51:22;;;;;;;;;;;7.80;99.90;;;;;;5091340;28;20044;-78
2022/11/25 08:53:52;;;;;;;17.25;6.97;;;8.10;99.90;;;;;;5092310;28;19927;-78
2022/11/25 08:56:19;;;;;;;20.88;7.68;;;7.80;99.90;;;;;;5092129;28;20054;-79
2022/11/25 08:58:45;;;;;;;15.50;7.13;;;7.90;99.90;;;;;;5074315;28;20048;-79
2022/11/25 09:01:12;;;;;;;22.23;7.10;;;7.70;99.90;;;;;;5090874;28;20040;-78
2022/11/25 09:03:41;;;;;;;20.65;8.05;;;8.00;99.90;;;;;;5090984;28;20048;-79
2022/11/25 09:06:07;;;;;;;20.42;7.47;;;7.70;99.90;;;;;;5092294;28;20048;-79
2022/11/25 09:08:34;;;;;;;17.83;7.30;;;7.90;99.90;;;;;;5090614;28;20044;-78
2022/11/25 09:11:00;;;;;;;24.52;8.68;;;8.20;99.90;;;;;;5091502;28;20083;-79
2022/11/25 09:13:26;;;;;;;22.80;7.55;;;7.90;99.90;;;;;;5090541;28;20051;-77
2022/11/25 09:15:52;;;;;;;19.05;8.00;;;8.30;99.90;;;;;;5090814;28;20044;-77
2022/11/25 09:18:19;;;;;;;16.80;7.97;;;8.10;99.90;;;;;;5090679;28;20067;-78
2022/11/25 09:20:45;;;;;;;26.25;7.63;;;8.20;99.90;;;;;;5091880;28;20051;-78
2022/11/25 09:23:11;;;;;;;21.88;7.70;;;9.40;99.90;;;;;;5090548;28;20036;-78
2022/11/25 09:25:37;;;;;;;20.70;6.60;;;9.20;99.90;;;;;;5091557;28;20071;-76
2022/11/25 09:28:04;;;;;;;18.17;6.70;;;8.00;99.90;;;;;;5091758;28;20083;-78
2022/11/25 09:30:30;;;;;;;20.33;7.13;;;8.60;99.90;;;;;;5073426;28;20055;-77
2022/11/25 09:32:56;;;;;;;;;;;8.50;99.90;;;;;;5090921;28;20059;-78
2022/11/25 09:35:23;;;;;;;19.15;6.80;;;8.50;99.90;;;;;;5090317;28;20269;-78
2022/11/25 09:37:49;;;;;;;15.88;5.30;;;8.40;99.90;;;;;;5090610;28;20453;-78
2022/11/25 09:40:28;;;;;;;15.95;5.18;;;8.70;99.90;;;;;;5091355;28;20097;-77
2022/11/25 09:49:20;;;;;;;15.00;4.57;;;8.70;99.90;;;;;;5090373;28;20102;-77
2022/11/25 09:52:21;;;;;;;16.60;4.93;;;8.80;99.90;;;;;;5091664;28;20493;-77
2022/11/25 09:54:52;;;;;;;10.32;4.65;;;8.80;99.90;;;;;;5089306;28;20113;-78
2022/11/25 09:57:23;;;;;;;16.55;4.60;;;8.90;99.90;;;;;;5078414;28;20051;-77
2022/11/25 09:59:57;;;;;;;13.50;4.40;;;9.00;99.90;;;;;;5095861;28;20080;-77
2022/11/25 10:02:31;;;;;;;17.05;4.68;;;9.10;99.90;;;;;;5093290;28;20496;-82
2022/11/25 10:05:04;;;;;;;17.80;4.93;;;9.40;99.90;;;;;;5086709;28;20125;-78
2022/11/25 10:07:41;;;;;;;12.55;4.45;;;9.20;99.90;;;;;;5091601;28;20048;-73
2022/11/25 10:10:21;;;;;;;19.15;5.30;;;9.50;99.90;;;;;;5073305;28;20102;-73
2022/11/25 10:12:50;;;;;;;18.73;5.32;;;9.50;99.90;;;;;;5075721;28;20048;-73
2022/11/25 10:15:24;;;;;;;15.23;4.93;;;9.20;99.90;;;;;;5094155;28;20048;-74
2022/11/25 10:17:58;;;;;;;14.10;4.50;;;9.40;99.90;;;;;;5094211;28;20114;-74
2022/11/25 10:20:26;;;;;;;16.65;4.30;;;9.40;99.90;;;;;;5093172;28;20066;-74
2022/11/25 10:22:56;;;;;;;14.18;4.80;;;9.40;99.90;;;;;;5093887;28;20075;-74
2022/11/25 10:25:26;;;;;;;13.60;4.65;;;9.40;99.90;;;;;;5094256;28;20051;-73
2022/11/25 10:27:55;;;;;;;7.82;3.92;;;9.80;99.90;;;;;;5093675;28;20055;-73
2022/11/25 10:30:25;;;;;;;12.98;4.20;;;9.50;99.90;;;;;;5093554;28;20427;-74
2022/11/25 10:33:03;;;;;;;13.40;4.32;;;9.60;99.90;;;;;;5093542;28;20056;-73
2022/11/25 10:35:44;;;;;;;16.02;4.75;;;9.80;99.90;;;;;;5094447;28;20056;-74
2022/11/25 10:38:24;;;;;;;18.38;4.30;;;9.60;99.90;;;;;;5093127;28;20139;-74
2022/11/25 10:40:53;;;;;;;13.65;4.50;;;9.80;99.90;;;;;;5093503;28;20199;-73
2022/11/25 10:43:19;;;;;;;15.30;3.92;;;10.60;99.90;;;;;;5094509;28;20097;-73
2022/11/25 10:45:51;;;;;;;9.27;3.75;;;9.80;99.90;;;;;;5094454;28;20056;-74
2022/11/25 10:48:27;;;;;;;12.00;3.97;;;9.70;99.90;;;;;;5093380;28;20070;-73
2022/11/25 10:51:27;;;;;;;11.75;3.92;;;10.00;99.90;;;;;;5094398;28;20040;-73
2022/11/25 10:54:22;;;;;;;12.85;4.32;;;10.10;99.90;;;;;;5094324;28;20112;-73
2022/11/25 10:56:55;;;;;;;13.93;3.45;;;10.10;99.90;;;;;;5093230;28;20496;-73
2022/11/25 10:59:38;;;;;;;10.57;3.80;;;10.30;99.90;;;;;;5093147;28;20491;-73
2022/11/25 11:02:29;;;;;;;13.82;3.63;;;10.10;99.90;;;;;;5092901;28;20051;-72
2022/11/25 11:04:57;;;;;;;15.77;3.75;;;11.20;99.90;;;;;;5084267;28;20427;-73
2022/11/25 11:07:26;;;;;;;12.10;3.70;;;10.10;99.90;;;;;;5092058;28;20040;-73
2022/11/25 11:09:52;;;;;;;14.43;3.22;;;10.10;99.90;;;;;;5093609;28;20119;-72
2022/11/25 11:12:26;;;;;;;16.63;3.83;;;10.20;99.90;;;;;;5092591;28;20511;-73
2022/11/25 11:15:12;;;;;;;14.63;3.63;;;10.40;99.90;;;;;;5092593;28;20052;-73
2022/11/25 11:17:38;;;;;;;20.60;3.85;;;11.10;99.90;;;;;;5092867;28;20097;-72
2022/11/25 11:20:06;;;;;;;13.48;3.72;;;10.20;99.90;;;;;;5093467;28;20044;-73
2022/11/25 11:22:34;;;;;;;13.23;3.53;;;10.40;99.90;;;;;;5092645;28;20498;-73
2022/11/25 11:25:30;;;;;;;17.15;3.75;;;10.30;99.90;;;;;;5093584;28;20105;-72
2022/11/25 11:27:57;;;;;;;13.82;3.60;;;10.10;99.90;;;;;;5093743;28;20044;-73
2022/11/25 11:30:26;;;;;;;12.18;3.45;;;10.10;99.90;;;;;;5092419;28;20047;-73
2022/11/25 11:33:03;;;;;;;19.77;3.28;;;10.30;99.90;;;;;;5093465;28;20058;-73
2022/11/25 11:35:56;;;;;;;15.98;3.08;;;10.40;99.90;;;;;;5091744;28;20056;-73
2022/11/25 11:38:27;;;;;;;23.77;4.85;;;11.00;99.90;;;;;;5093403;28;20136;-73
2022/11/25 11:41:15;;;;;;;11.80;3.10;;;10.50;99.90;;;;;;5093290;28;20044;-73
2022/11/25 11:43:49;;;;;;;12.68;3.63;;;10.40;99.90;;;;;;5093360;28;20051;-74
2022/11/25 11:46:42;;;;;;;12.52;3.08;;;10.20;99.90;;;;;;5093254;28;20044;-73
2022/11/25 11:49:33;;;;;;;13.30;3.30;;;10.70;99.90;;;;;;5091738;28;20044;-72
2022/11/25 11:52:14;;;;;;;13.65;3.00;;;10.50;99.90;;;;;;5078247;28;20056;-73
2022/11/25 11:54:57;;;;;;;14.63;3.35;;;10.80;99.90;;;;;;5093089;28;20471;-73
2022/11/25 11:57:51;;;;;;;13.70;3.20;;;10.70;99.90;;;;;;5093020;28;20043;-73
2022/11/25 12:00:19;;;;;;;15.93;3.70;;;10.70;99.90;;;;;;5093065;28;20121;-73
2022/11/25 12:03:09;;;;;;;10.18;2.75;;;10.90;99.90;;;;;;5092994;28;20083;-72
2022/11/25 12:05:36;;;;;;;16.65;3.05;;;10.50;99.90;;;;;;5092985;28;20058;-72
2022/11/25 12:08:10;;;;;;;16.90;2.83;;;10.80;99.90;;;;;;5091254;28;20575;-73
2022/11/25 12:10:59;;;;;;;13.90;2.88;;;10.90;99.90;;;;;;5092870;28;20131;-74
2022/11/25 12:13:37;;;;;;;18.05;3.53;;;10.60;99.90;;;;;;5092811;28;20048;-74
2022/11/25 12:16:20;;;;;;;8.00;2.60;;;10.60;99.90;;;;;;5091730;28;20139;-74
2022/11/25 12:18:51;;;;;;;12.40;2.63;;;10.80;99.90;;;;;;5092344;28;20134;-75
2022/11/25 12:21:44;;;;;;;13.18;2.60;;;10.30;99.90;;;;;;5092618;28;20126;-74
2022/11/25 12:24:30;;;;;;;13.88;3.15;;;10.60;99.90;;;;;;5092575;28;20056;-75
2022/11/25 12:27:20;;;;;;;16.55;3.25;;;10.50;99.90;;;;;;5092486;28;20047;-75
2022/11/25 12:29:59;;;;;;;9.45;2.90;;;10.60;99.90;;;;;;5091407;28;20040;-72
2022/11/25 12:32:37;;;;;;;11.90;3.40;;;10.70;99.90;;;;;;5073929;28;20484;-74
2022/11/25 12:35:36;;;;;;;10.60;2.13;;;11.60;99.90;;;;;;5091252;28;20048;-74
2022/11/25 12:38:34;;;;;;;20.38;3.40;;;11.30;99.90;;;;;;5091329;28;20446;-75
2022/11/25 12:41:18;;;;;;;15.90;3.05;;;12.90;99.90;;;;;;5090258;28;20059;-74
2022/11/25 12:43:56;;;;;;;18.33;2.72;;;12.70;99.90;;;;;;5090981;28;20137;-74
2022/11/25 12:46:34;;;;;;;13.88;2.40;;;12.90;99.90;;;;;;5091407;28;20369;-74
2022/11/25 12:49:00;;;;;;;10.20;2.10;;;13.00;99.90;;;;;;5092501;28;20054;-74
2022/11/25 12:51:51;;;;;;;13.25;2.05;;;12.90;99.90;;;;;;5092185;28;20047;-74
2022/11/25 12:54:36;;;;;;;17.15;2.70;;;13.90;99.90;;;;;;5091201;28;20048;-75
2022/11/25 12:57:07;;;;;;;18.73;2.95;;;13.10;99.90;;;;;;5092035;28;20052;-75
2022/11/25 12:59:45;;;;;;;11.18;2.58;;;13.10;99.90;;;;;;5091071;28;20126;-75
2022/11/25 13:02:29;;;;;;;15.73;2.65;;;13.50;99.90;;;;;;5090744;28;20048;-74
2022/11/25 13:05:16;;;;;;;14.55;2.53;;;13.40;99.90;;;;;;5091973;28;20047;-75
2022/11/25 13:08:10;;;;;;;11.07;2.22;;;13.10;99.90;;;;;;5091960;28;20059;-74
2022/11/25 13:10:45;;;;;;;15.05;2.95;;;12.80;99.90;;;;;;5080800;28;20056;-72
2022/11/25 13:13:37;;;;;;;13.23;2.95;;;13.00;99.90;;;;;;5091942;28;20119;-74
2022/11/25 13:16:06;;;;;;;11.10;2.40;;;12.00;99.90;;;;;;5090590;28;20562;-74